sensor_id;sensor_type;location;lat;lon;timestamp;P1;durP1;ratioP1;P2;durP2;ratioP2
74528;SDS011;63009;52.584;5.932;2023-06-22T00:00:38;19.33;;;12.23;;
74528;SDS011;63009;52.584;5.932;2023-06-22T00:03:06;19.60;;;12.57;;
74528;SDS011;63009;52.584;5.932;2023-06-22T00:05:32;20.20;;;12.27;;
74528;SDS011;63009;52.584;5.932;2023-06-22T00:07:57;19.77;;;12.57;;
74528;SDS011;63009;52.584;5.932;2023-06-22T00:10:22;18.57;;;12.10;;
74528;SDS011;63009;52.584;5.932;2023-06-22T00:12:48;19.47;;;12.23;;
74528;SDS011;63009;52.584;5.932;2023-06-22T00:15:13;20.20;;;12.50;;
74528;SDS011;63009;52.584;5.932;2023-06-22T00:17:38;20.47;;;11.90;;
74528;SDS011;63009;52.584;5.932;2023-06-22T00:20:04;21.05;;;11.25;;
74528;SDS011;63009;52.584;5.932;2023-06-22T00:22:30;17.95;;;11.63;;
74528;SDS011;63009;52.584;5.932;2023-06-22T00:24:56;19.10;;;12.97;;
74528;SDS011;63009;52.584;5.932;2023-06-22T00:27:21;20.05;;;12.48;;
74528;SDS011;63009;52.584;5.932;2023-06-22T00:29:47;20.90;;;12.77;;
74528;SDS011;63009;52.584;5.932;2023-06-22T00:32:12;20.43;;;12.37;;
74528;SDS011;63009;52.584;5.932;2023-06-22T00:34:37;20.77;;;13.60;;
74528;SDS011;63009;52.584;5.932;2023-06-22T00:37:02;20.67;;;13.57;;
74528;SDS011;63009;52.584;5.932;2023-06-22T00:39:28;20.88;;;14.27;;
74528;SDS011;63009;52.584;5.932;2023-06-22T00:41:53;21.83;;;13.07;;
74528;SDS011;63009;52.584;5.932;2023-06-22T00:44:19;20.00;;;12.90;;
74528;SDS011;63009;52.584;5.932;2023-06-22T00:46:45;24.90;;;13.50;;
74528;SDS011;63009;52.584;5.932;2023-06-22T00:49:10;25.13;;;13.98;;
74528;SDS011;63009;52.584;5.932;2023-06-22T00:51:35;22.10;;;14.43;;
74528;SDS011;63009;52.584;5.932;2023-06-22T00:54:03;22.35;;;13.25;;
74528;SDS011;63009;52.584;5.932;2023-06-22T00:56:30;18.85;;;12.65;;
74528;SDS011;63009;52.584;5.932;2023-06-22T00:58:55;20.23;;;13.68;;
74528;SDS011;63009;52.584;5.932;2023-06-22T01:01:24;19.45;;;12.90;;
74528;SDS011;63009;52.584;5.932;2023-06-22T01:03:49;21.70;;;13.50;;
74528;SDS011;63009;52.584;5.932;2023-06-22T01:06:16;20.30;;;13.25;;
74528;SDS011;63009;52.584;5.932;2023-06-22T01:09:15;20.52;;;14.32;;
74528;SDS011;63009;52.584;5.932;2023-06-22T01:11:57;22.17;;;14.30;;
74528;SDS011;63009;52.584;5.932;2023-06-22T01:17:03;25.25;;;15.23;;
74528;SDS011;63009;52.584;5.932;2023-06-22T01:19:37;23.52;;;15.80;;
74528;SDS011;63009;52.584;5.932;2023-06-22T01:22:08;22.55;;;16.08;;
74528;SDS011;63009;52.584;5.932;2023-06-22T01:27:32;27.45;;;17.55;;
74528;SDS011;63009;52.584;5.932;2023-06-22T01:30:10;27.58;;;17.65;;
74528;SDS011;63009;52.584;5.932;2023-06-22T01:32:38;27.73;;;18.27;;
74528;SDS011;63009;52.584;5.932;2023-06-22T01:35:06;28.38;;;18.70;;
74528;SDS011;63009;52.584;5.932;2023-06-22T01:37:33;29.38;;;18.98;;
74528;SDS011;63009;52.584;5.932;2023-06-22T01:40:00;31.23;;;20.88;;
74528;SDS011;63009;52.584;5.932;2023-06-22T01:42:26;30.52;;;19.23;;
74528;SDS011;63009;52.584;5.932;2023-06-22T01:44:53;31.60;;;19.83;;
74528;SDS011;63009;52.584;5.932;2023-06-22T01:47:20;34.97;;;22.45;;
74528;SDS011;63009;52.584;5.932;2023-06-22T01:49:46;32.40;;;21.40;;
74528;SDS011;63009;52.584;5.932;2023-06-22T01:52:12;32.88;;;22.30;;
74528;SDS011;63009;52.584;5.932;2023-06-22T01:54:37;33.03;;;22.57;;
74528;SDS011;63009;52.584;5.932;2023-06-22T01:57:05;31.92;;;21.85;;
74528;SDS011;63009;52.584;5.932;2023-06-22T01:59:34;33.72;;;23.80;;
74528;SDS011;63009;52.584;5.932;2023-06-22T02:02:06;34.17;;;23.88;;
74528;SDS011;63009;52.584;5.932;2023-06-22T02:04:36;38.22;;;23.92;;
74528;SDS011;63009;52.584;5.932;2023-06-22T02:09:37;35.80;;;24.00;;
74528;SDS011;63009;52.584;5.932;2023-06-22T02:12:04;35.00;;;22.00;;
74528;SDS011;63009;52.584;5.932;2023-06-22T02:14:31;30.40;;;21.00;;
74528;SDS011;63009;52.584;5.932;2023-06-22T02:16:57;33.08;;;21.35;;
74528;SDS011;63009;52.584;5.932;2023-06-22T02:19:26;27.52;;;19.15;;
74528;SDS011;63009;52.584;5.932;2023-06-22T02:21:52;25.30;;;17.90;;
74528;SDS011;63009;52.584;5.932;2023-06-22T02:24:17;24.15;;;16.85;;
74528;SDS011;63009;52.584;5.932;2023-06-22T02:26:43;25.27;;;18.10;;
74528;SDS011;63009;52.584;5.932;2023-06-22T02:29:10;26.85;;;17.58;;
74528;SDS011;63009;52.584;5.932;2023-06-22T02:31:36;23.35;;;16.38;;
74528;SDS011;63009;52.584;5.932;2023-06-22T02:34:01;26.13;;;17.80;;
74528;SDS011;63009;52.584;5.932;2023-06-22T02:36:26;28.60;;;19.63;;
74528;SDS011;63009;52.584;5.932;2023-06-22T02:38:52;27.55;;;19.67;;
74528;SDS011;63009;52.584;5.932;2023-06-22T02:41:19;27.55;;;18.83;;
74528;SDS011;63009;52.584;5.932;2023-06-22T02:43:45;30.67;;;19.75;;
74528;SDS011;63009;52.584;5.932;2023-06-22T02:46:10;32.22;;;20.98;;
74528;SDS011;63009;52.584;5.932;2023-06-22T02:48:37;26.45;;;17.85;;
74528;SDS011;63009;52.584;5.932;2023-06-22T02:51:03;25.85;;;17.15;;
74528;SDS011;63009;52.584;5.932;2023-06-22T02:53:28;22.03;;;15.60;;
74528;SDS011;63009;52.584;5.932;2023-06-22T02:55:54;25.47;;;17.03;;
74528;SDS011;63009;52.584;5.932;2023-06-22T02:58:20;28.50;;;18.23;;
74528;SDS011;63009;52.584;5.932;2023-06-22T03:00:46;31.70;;;20.15;;
74528;SDS011;63009;52.584;5.932;2023-06-22T03:03:11;35.67;;;23.43;;
74528;SDS011;63009;52.584;5.932;2023-06-22T03:05:36;40.70;;;25.47;;
74528;SDS011;63009;52.584;5.932;2023-06-22T03:08:02;41.63;;;25.77;;
74528;SDS011;63009;52.584;5.932;2023-06-22T03:10:27;39.05;;;24.48;;
74528;SDS011;63009;52.584;5.932;2023-06-22T03:12:52;43.17;;;26.73;;
74528;SDS011;63009;52.584;5.932;2023-06-22T03:15:18;46.63;;;30.03;;
74528;SDS011;63009;52.584;5.932;2023-06-22T03:17:43;45.73;;;28.93;;
74528;SDS011;63009;52.584;5.932;2023-06-22T03:20:09;47.07;;;29.67;;
74528;SDS011;63009;52.584;5.932;2023-06-22T03:22:39;53.50;;;31.08;;
74528;SDS011;63009;52.584;5.932;2023-06-22T03:25:06;50.78;;;30.52;;
74528;SDS011;63009;52.584;5.932;2023-06-22T03:27:34;50.03;;;30.08;;
74528;SDS011;63009;52.584;5.932;2023-06-22T03:30:00;49.50;;;29.75;;
74528;SDS011;63009;52.584;5.932;2023-06-22T03:32:25;43.53;;;29.43;;
74528;SDS011;63009;52.584;5.932;2023-06-22T03:34:52;50.30;;;30.10;;
74528;SDS011;63009;52.584;5.932;2023-06-22T03:37:18;49.78;;;29.77;;
74528;SDS011;63009;52.584;5.932;2023-06-22T03:39:43;44.87;;;29.07;;
74528;SDS011;63009;52.584;5.932;2023-06-22T03:42:08;44.93;;;29.23;;
74528;SDS011;63009;52.584;5.932;2023-06-22T03:44:34;40.70;;;27.00;;
74528;SDS011;63009;52.584;5.932;2023-06-22T03:47:01;41.78;;;26.80;;
74528;SDS011;63009;52.584;5.932;2023-06-22T03:49:27;41.20;;;25.25;;
74528;SDS011;63009;52.584;5.932;2023-06-22T03:51:52;41.97;;;27.07;;
74528;SDS011;63009;52.584;5.932;2023-06-22T03:54:17;45.90;;;28.87;;
74528;SDS011;63009;52.584;5.932;2023-06-22T03:56:43;44.03;;;28.10;;
74528;SDS011;63009;52.584;5.932;2023-06-22T03:59:08;38.87;;;25.07;;
74528;SDS011;63009;52.584;5.932;2023-06-22T04:01:33;41.57;;;26.07;;
74528;SDS011;63009;52.584;5.932;2023-06-22T04:03:58;42.80;;;25.77;;
74528;SDS011;63009;52.584;5.932;2023-06-22T04:06:24;39.87;;;26.43;;
74528;SDS011;63009;52.584;5.932;2023-06-22T04:08:49;42.33;;;27.30;;
74528;SDS011;63009;52.584;5.932;2023-06-22T04:11:16;45.75;;;29.23;;
74528;SDS011;63009;52.584;5.932;2023-06-22T04:13:42;45.78;;;28.33;;
74528;SDS011;63009;52.584;5.932;2023-06-22T04:16:08;47.55;;;29.67;;
74528;SDS011;63009;52.584;5.932;2023-06-22T04:18:33;48.63;;;30.97;;
74528;SDS011;63009;52.584;5.932;2023-06-22T04:20:59;50.13;;;30.90;;
74528;SDS011;63009;52.584;5.932;2023-06-22T04:23:24;48.30;;;30.90;;
74528;SDS011;63009;52.584;5.932;2023-06-22T04:25:49;45.10;;;29.23;;
74528;SDS011;63009;52.584;5.932;2023-06-22T04:28:16;46.35;;;30.42;;
74528;SDS011;63009;52.584;5.932;2023-06-22T04:30:41;48.38;;;31.58;;
74528;SDS011;63009;52.584;5.932;2023-06-22T04:33:12;47.50;;;29.75;;
74528;SDS011;63009;52.584;5.932;2023-06-22T04:35:38;44.80;;;28.05;;
74528;SDS011;63009;52.584;5.932;2023-06-22T04:38:06;47.03;;;30.00;;
74528;SDS011;63009;52.584;5.932;2023-06-22T04:40:31;50.40;;;30.98;;
74528;SDS011;63009;52.584;5.932;2023-06-22T04:42:57;47.57;;;29.70;;
74528;SDS011;63009;52.584;5.932;2023-06-22T04:45:22;50.43;;;30.83;;
74528;SDS011;63009;52.584;5.932;2023-06-22T04:47:47;44.50;;;29.23;;
74528;SDS011;63009;52.584;5.932;2023-06-22T04:50:13;51.30;;;30.45;;
74528;SDS011;63009;52.584;5.932;2023-06-22T04:52:38;46.60;;;29.00;;
74528;SDS011;63009;52.584;5.932;2023-06-22T04:55:03;47.73;;;31.03;;
74528;SDS011;63009;52.584;5.932;2023-06-22T04:57:29;49.63;;;29.88;;
74528;SDS011;63009;52.584;5.932;2023-06-22T05:00:01;43.03;;;28.75;;
74528;SDS011;63009;52.584;5.932;2023-06-22T05:05:06;49.15;;;29.27;;
74528;SDS011;63009;52.584;5.932;2023-06-22T05:07:32;47.03;;;30.38;;
74528;SDS011;63009;52.584;5.932;2023-06-22T05:09:58;45.13;;;29.27;;
74528;SDS011;63009;52.584;5.932;2023-06-22T05:12:23;43.87;;;28.57;;
74528;SDS011;63009;52.584;5.932;2023-06-22T05:14:48;44.20;;;29.13;;
74528;SDS011;63009;52.584;5.932;2023-06-22T05:17:14;40.80;;;27.17;;
74528;SDS011;63009;52.584;5.932;2023-06-22T05:19:40;44.83;;;29.50;;
74528;SDS011;63009;52.584;5.932;2023-06-22T05:22:10;44.08;;;28.58;;
74528;SDS011;63009;52.584;5.932;2023-06-22T05:24:37;45.80;;;28.02;;
74528;SDS011;63009;52.584;5.932;2023-06-22T05:27:02;43.13;;;29.07;;
74528;SDS011;63009;52.584;5.932;2023-06-22T05:29:27;48.28;;;27.60;;
74528;SDS011;63009;52.584;5.932;2023-06-22T05:31:53;41.57;;;26.00;;
74528;SDS011;63009;52.584;5.932;2023-06-22T05:34:18;39.40;;;25.47;;
74528;SDS011;63009;52.584;5.932;2023-06-22T05:36:43;38.93;;;25.53;;
74528;SDS011;63009;52.584;5.932;2023-06-22T05:39:12;39.13;;;24.70;;
74528;SDS011;63009;52.584;5.932;2023-06-22T05:41:41;37.90;;;24.42;;
74528;SDS011;63009;52.584;5.932;2023-06-22T05:44:06;38.08;;;26.05;;
74528;SDS011;63009;52.584;5.932;2023-06-22T05:46:32;33.92;;;23.05;;
74528;SDS011;63009;52.584;5.932;2023-06-22T05:48:57;34.03;;;23.42;;
74528;SDS011;63009;52.584;5.932;2023-06-22T05:51:22;32.87;;;21.43;;
74528;SDS011;63009;52.584;5.932;2023-06-22T05:53:48;35.23;;;22.67;;
74528;SDS011;63009;52.584;5.932;2023-06-22T05:56:15;33.97;;;22.17;;
74528;SDS011;63009;52.584;5.932;2023-06-22T05:58:41;37.20;;;23.63;;
74528;SDS011;63009;52.584;5.932;2023-06-22T06:01:06;34.38;;;23.10;;
74528;SDS011;63009;52.584;5.932;2023-06-22T06:03:31;39.17;;;24.00;;
74528;SDS011;63009;52.584;5.932;2023-06-22T06:05:56;35.57;;;23.73;;
74528;SDS011;63009;52.584;5.932;2023-06-22T06:08:22;37.90;;;24.73;;
74528;SDS011;63009;52.584;5.932;2023-06-22T06:10:47;39.83;;;24.60;;
74528;SDS011;63009;52.584;5.932;2023-06-22T06:13:12;36.20;;;24.30;;
74528;SDS011;63009;52.584;5.932;2023-06-22T06:15:38;33.70;;;23.10;;
74528;SDS011;63009;52.584;5.932;2023-06-22T06:18:03;36.13;;;24.00;;
74528;SDS011;63009;52.584;5.932;2023-06-22T06:20:32;33.83;;;22.80;;
74528;SDS011;63009;52.584;5.932;2023-06-22T06:22:57;35.17;;;22.27;;
74528;SDS011;63009;52.584;5.932;2023-06-22T06:25:23;32.88;;;20.60;;
74528;SDS011;63009;52.584;5.932;2023-06-22T06:27:49;33.45;;;23.35;;
74528;SDS011;63009;52.584;5.932;2023-06-22T06:30:17;31.40;;;21.67;;
74528;SDS011;63009;52.584;5.932;2023-06-22T06:32:44;32.95;;;23.52;;
74528;SDS011;63009;52.584;5.932;2023-06-22T06:35:13;31.67;;;20.02;;
74528;SDS011;63009;52.584;5.932;2023-06-22T06:37:41;31.60;;;21.25;;
74528;SDS011;63009;52.584;5.932;2023-06-22T06:42:35;30.40;;;18.67;;
74528;SDS011;63009;52.584;5.932;2023-06-22T06:45:02;29.70;;;18.63;;
74528;SDS011;63009;52.584;5.932;2023-06-22T06:47:29;25.38;;;18.23;;
74528;SDS011;63009;52.584;5.932;2023-06-22T06:49:54;25.93;;;17.97;;
74528;SDS011;63009;52.584;5.932;2023-06-22T06:52:19;29.37;;;19.70;;
74528;SDS011;63009;52.584;5.932;2023-06-22T06:54:45;24.40;;;17.40;;
74528;SDS011;63009;52.584;5.932;2023-06-22T06:57:10;25.30;;;17.63;;
74528;SDS011;63009;52.584;5.932;2023-06-22T06:59:38;24.90;;;16.70;;
74528;SDS011;63009;52.584;5.932;2023-06-22T07:02:04;21.70;;;14.73;;
74528;SDS011;63009;52.584;5.932;2023-06-22T07:04:29;19.67;;;12.82;;
74528;SDS011;63009;52.584;5.932;2023-06-22T07:06:55;18.70;;;12.27;;
74528;SDS011;63009;52.584;5.932;2023-06-22T07:09:20;18.90;;;12.67;;
74528;SDS011;63009;52.584;5.932;2023-06-22T07:11:45;18.77;;;11.53;;
74528;SDS011;63009;52.584;5.932;2023-06-22T07:14:10;21.30;;;12.93;;
74528;SDS011;63009;52.584;5.932;2023-06-22T07:16:36;18.07;;;11.33;;
74528;SDS011;63009;52.584;5.932;2023-06-22T07:19:01;19.73;;;12.37;;
74528;SDS011;63009;52.584;5.932;2023-06-22T07:21:27;18.00;;;11.57;;
74528;SDS011;63009;52.584;5.932;2023-06-22T07:23:52;17.37;;;11.73;;
74528;SDS011;63009;52.584;5.932;2023-06-22T07:26:19;18.92;;;12.13;;
74528;SDS011;63009;52.584;5.932;2023-06-22T07:28:44;20.27;;;13.32;;
74528;SDS011;63009;52.584;5.932;2023-06-22T07:31:09;20.37;;;12.50;;
74528;SDS011;63009;52.584;5.932;2023-06-22T07:33:35;18.40;;;13.20;;
74528;SDS011;63009;52.584;5.932;2023-06-22T07:36:00;21.47;;;12.20;;
74528;SDS011;63009;52.584;5.932;2023-06-22T07:38:25;18.52;;;12.43;;
74528;SDS011;63009;52.584;5.932;2023-06-22T07:40:50;19.30;;;12.60;;
74528;SDS011;63009;52.584;5.932;2023-06-22T07:43:18;21.30;;;13.77;;
74528;SDS011;63009;52.584;5.932;2023-06-22T07:45:47;20.15;;;12.82;;
74528;SDS011;63009;52.584;5.932;2023-06-22T07:48:17;20.98;;;12.40;;
74528;SDS011;63009;52.584;5.932;2023-06-22T07:50:42;17.45;;;12.43;;
74528;SDS011;63009;52.584;5.932;2023-06-22T07:53:07;20.08;;;13.10;;
74528;SDS011;63009;52.584;5.932;2023-06-22T07:55:32;20.20;;;13.93;;
74528;SDS011;63009;52.584;5.932;2023-06-22T07:57:58;18.33;;;12.30;;
74528;SDS011;63009;52.584;5.932;2023-06-22T08:00:23;19.20;;;12.97;;
74528;SDS011;63009;52.584;5.932;2023-06-22T08:02:48;17.52;;;12.05;;
74528;SDS011;63009;52.584;5.932;2023-06-22T08:05:14;19.20;;;12.50;;
74528;SDS011;63009;52.584;5.932;2023-06-22T08:07:40;18.60;;;13.10;;
74528;SDS011;63009;52.584;5.932;2023-06-22T08:10:06;19.02;;;11.77;;
74528;SDS011;63009;52.584;5.932;2023-06-22T08:12:35;18.13;;;11.25;;
74528;SDS011;63009;52.584;5.932;2023-06-22T08:15:00;14.80;;;10.20;;
74528;SDS011;63009;52.584;5.932;2023-06-22T08:17:25;18.02;;;11.45;;
74528;SDS011;63009;52.584;5.932;2023-06-22T08:19:51;18.75;;;10.70;;
74528;SDS011;63009;52.584;5.932;2023-06-22T08:22:16;17.30;;;9.70;;
74528;SDS011;63009;52.584;5.932;2023-06-22T08:24:42;16.88;;;9.98;;
74528;SDS011;63009;52.584;5.932;2023-06-22T08:27:08;18.20;;;10.70;;
74528;SDS011;63009;52.584;5.932;2023-06-22T08:29:34;16.00;;;10.27;;
74528;SDS011;63009;52.584;5.932;2023-06-22T08:32:00;16.27;;;10.10;;
74528;SDS011;63009;52.584;5.932;2023-06-22T08:34:26;16.37;;;9.80;;
74528;SDS011;63009;52.584;5.932;2023-06-22T08:36:52;17.27;;;10.48;;
74528;SDS011;63009;52.584;5.932;2023-06-22T08:39:18;15.75;;;10.20;;
74528;SDS011;63009;52.584;5.932;2023-06-22T08:41:45;15.32;;;10.30;;
74528;SDS011;63009;52.584;5.932;2023-06-22T08:44:10;17.73;;;11.23;;
74528;SDS011;63009;52.584;5.932;2023-06-22T08:46:35;17.47;;;10.73;;
74528;SDS011;63009;52.584;5.932;2023-06-22T08:49:01;16.77;;;11.00;;
74528;SDS011;63009;52.584;5.932;2023-06-22T08:51:27;15.43;;;9.85;;
74528;SDS011;63009;52.584;5.932;2023-06-22T08:53:52;15.30;;;9.40;;
74528;SDS011;63009;52.584;5.932;2023-06-22T08:56:17;15.97;;;10.37;;
74528;SDS011;63009;52.584;5.932;2023-06-22T08:58:43;14.60;;;9.50;;
74528;SDS011;63009;52.584;5.932;2023-06-22T09:01:09;24.23;;;10.63;;
74528;SDS011;63009;52.584;5.932;2023-06-22T09:03:34;18.27;;;12.03;;
74528;SDS011;63009;52.584;5.932;2023-06-22T09:06:01;18.52;;;11.55;;
74528;SDS011;63009;52.584;5.932;2023-06-22T09:08:26;18.17;;;12.13;;
74528;SDS011;63009;52.584;5.932;2023-06-22T09:10:52;17.20;;;10.40;;
74528;SDS011;63009;52.584;5.932;2023-06-22T09:13:17;17.27;;;11.70;;
74528;SDS011;63009;52.584;5.932;2023-06-22T09:15:43;16.15;;;10.52;;
74528;SDS011;63009;52.584;5.932;2023-06-22T09:18:10;14.97;;;9.63;;
74528;SDS011;63009;52.584;5.932;2023-06-22T09:20:36;17.13;;;10.70;;
74528;SDS011;63009;52.584;5.932;2023-06-22T09:23:01;15.57;;;10.33;;
74528;SDS011;63009;52.584;5.932;2023-06-22T09:25:26;17.27;;;12.20;;
74528;SDS011;63009;52.584;5.932;2023-06-22T09:27:52;16.80;;;10.73;;
74528;SDS011;63009;52.584;5.932;2023-06-22T09:30:17;15.10;;;10.13;;
74528;SDS011;63009;52.584;5.932;2023-06-22T09:32:42;16.53;;;10.77;;
74528;SDS011;63009;52.584;5.932;2023-06-22T09:35:08;17.50;;;10.57;;
74528;SDS011;63009;52.584;5.932;2023-06-22T09:37:34;16.38;;;10.52;;
74528;SDS011;63009;52.584;5.932;2023-06-22T09:40:00;17.75;;;11.30;;
74528;SDS011;63009;52.584;5.932;2023-06-22T09:42:25;16.10;;;10.43;;
74528;SDS011;63009;52.584;5.932;2023-06-22T09:44:50;17.00;;;10.13;;
74528;SDS011;63009;52.584;5.932;2023-06-22T09:47:15;14.80;;;10.10;;
74528;SDS011;63009;52.584;5.932;2023-06-22T09:49:41;16.13;;;11.07;;
74528;SDS011;63009;52.584;5.932;2023-06-22T09:52:06;16.53;;;10.80;;
74528;SDS011;63009;52.584;5.932;2023-06-22T09:54:32;16.95;;;10.60;;
74528;SDS011;63009;52.584;5.932;2023-06-22T09:56:57;15.38;;;10.48;;
74528;SDS011;63009;52.584;5.932;2023-06-22T09:59:22;15.30;;;10.77;;
74528;SDS011;63009;52.584;5.932;2023-06-22T10:01:47;15.30;;;10.37;;
74528;SDS011;63009;52.584;5.932;2023-06-22T10:04:13;14.43;;;10.10;;
74528;SDS011;63009;52.584;5.932;2023-06-22T10:06:38;14.45;;;10.05;;
74528;SDS011;63009;52.584;5.932;2023-06-22T10:09:05;14.23;;;9.05;;
74528;SDS011;63009;52.584;5.932;2023-06-22T10:11:31;14.77;;;9.60;;
74528;SDS011;63009;52.584;5.932;2023-06-22T10:13:56;13.00;;;7.30;;
74528;SDS011;63009;52.584;5.932;2023-06-22T10:16:23;12.65;;;8.23;;
74528;SDS011;63009;52.584;5.932;2023-06-22T10:18:55;12.55;;;7.28;;
74528;SDS011;63009;52.584;5.932;2023-06-22T10:21:20;13.50;;;7.87;;
74528;SDS011;63009;52.584;5.932;2023-06-22T10:23:45;12.67;;;8.00;;
74528;SDS011;63009;52.584;5.932;2023-06-22T10:26:10;13.10;;;6.93;;
74528;SDS011;63009;52.584;5.932;2023-06-22T10:28:36;13.40;;;8.17;;
74528;SDS011;63009;52.584;5.932;2023-06-22T10:31:01;13.87;;;7.10;;
74528;SDS011;63009;52.584;5.932;2023-06-22T10:33:26;14.85;;;8.00;;
74528;SDS011;63009;52.584;5.932;2023-06-22T10:35:51;13.23;;;8.27;;
74528;SDS011;63009;52.584;5.932;2023-06-22T10:38:17;11.30;;;6.17;;
74528;SDS011;63009;52.584;5.932;2023-06-22T10:40:42;11.73;;;6.87;;
74528;SDS011;63009;52.584;5.932;2023-06-22T10:43:07;11.77;;;6.80;;
74528;SDS011;63009;52.584;5.932;2023-06-22T10:45:32;13.07;;;6.77;;
74528;SDS011;63009;52.584;5.932;2023-06-22T10:47:58;11.60;;;6.57;;
74528;SDS011;63009;52.584;5.932;2023-06-22T10:50:24;9.87;;;5.63;;
74528;SDS011;63009;52.584;5.932;2023-06-22T10:52:50;11.25;;;5.88;;
74528;SDS011;63009;52.584;5.932;2023-06-22T10:55:15;12.17;;;7.13;;
74528;SDS011;63009;52.584;5.932;2023-06-22T10:57:41;12.25;;;6.25;;
74528;SDS011;63009;52.584;5.932;2023-06-22T11:00:09;11.38;;;5.82;;
74528;SDS011;63009;52.584;5.932;2023-06-22T11:02:36;10.70;;;5.25;;
74528;SDS011;63009;52.584;5.932;2023-06-22T11:05:01;10.53;;;6.30;;
74528;SDS011;63009;52.584;5.932;2023-06-22T11:07:28;11.32;;;7.05;;
74528;SDS011;63009;52.584;5.932;2023-06-22T11:09:54;10.57;;;5.78;;
74528;SDS011;63009;52.584;5.932;2023-06-22T11:12:20;14.77;;;6.50;;
74528;SDS011;63009;52.584;5.932;2023-06-22T11:14:45;12.13;;;6.93;;
74528;SDS011;63009;52.584;5.932;2023-06-22T11:17:10;11.98;;;6.72;;
74528;SDS011;63009;52.584;5.932;2023-06-22T11:19:35;10.37;;;5.57;;
74528;SDS011;63009;52.584;5.932;2023-06-22T11:22:01;11.18;;;7.55;;
74528;SDS011;63009;52.584;5.932;2023-06-22T11:24:27;13.02;;;7.28;;
74528;SDS011;63009;52.584;5.932;2023-06-22T11:26:52;11.70;;;6.67;;
74528;SDS011;63009;52.584;5.932;2023-06-22T11:29:17;11.27;;;6.27;;
74528;SDS011;63009;52.584;5.932;2023-06-22T11:31:42;10.43;;;5.70;;
74528;SDS011;63009;52.584;5.932;2023-06-22T11:34:08;12.40;;;6.13;;
74528;SDS011;63009;52.584;5.932;2023-06-22T11:36:33;13.82;;;5.75;;
74528;SDS011;63009;52.584;5.932;2023-06-22T11:39:00;11.30;;;6.32;;
74528;SDS011;63009;52.584;5.932;2023-06-22T11:41:26;12.20;;;6.57;;
74528;SDS011;63009;52.584;5.932;2023-06-22T11:43:51;10.85;;;6.88;;
74528;SDS011;63009;52.584;5.932;2023-06-22T11:46:16;14.60;;;8.60;;
74528;SDS011;63009;52.584;5.932;2023-06-22T11:48:41;10.73;;;7.10;;
74528;SDS011;63009;52.584;5.932;2023-06-22T11:51:07;13.57;;;7.77;;
74528;SDS011;63009;52.584;5.932;2023-06-22T11:53:33;10.75;;;6.22;;
74528;SDS011;63009;52.584;5.932;2023-06-22T11:55:59;12.35;;;7.38;;
74528;SDS011;63009;52.584;5.932;2023-06-22T11:58:26;11.77;;;7.22;;
74528;SDS011;63009;52.584;5.932;2023-06-22T12:00:51;13.73;;;7.63;;
74528;SDS011;63009;52.584;5.932;2023-06-22T12:03:17;11.77;;;7.72;;
74528;SDS011;63009;52.584;5.932;2023-06-22T12:05:42;12.25;;;8.13;;
74528;SDS011;63009;52.584;5.932;2023-06-22T12:08:07;12.98;;;7.63;;
74528;SDS011;63009;52.584;5.932;2023-06-22T12:10:33;12.15;;;7.55;;
74528;SDS011;63009;52.584;5.932;2023-06-22T12:12:59;12.52;;;7.53;;
74528;SDS011;63009;52.584;5.932;2023-06-22T12:15:25;12.18;;;6.93;;
74528;SDS011;63009;52.584;5.932;2023-06-22T12:17:51;11.57;;;6.40;;
74528;SDS011;63009;52.584;5.932;2023-06-22T12:20:16;14.57;;;8.05;;
74528;SDS011;63009;52.584;5.932;2023-06-22T12:22:42;13.07;;;7.53;;
74528;SDS011;63009;52.584;5.932;2023-06-22T12:25:07;13.93;;;8.23;;
74528;SDS011;63009;52.584;5.932;2023-06-22T12:27:33;11.93;;;7.78;;
74528;SDS011;63009;52.584;5.932;2023-06-22T12:29:59;12.57;;;7.72;;
74528;SDS011;63009;52.584;5.932;2023-06-22T12:32:25;13.43;;;7.83;;
74528;SDS011;63009;52.584;5.932;2023-06-22T12:34:51;12.70;;;8.50;;
74528;SDS011;63009;52.584;5.932;2023-06-22T12:37:16;10.30;;;6.03;;
74528;SDS011;63009;52.584;5.932;2023-06-22T12:39:41;12.95;;;7.70;;
74528;SDS011;63009;52.584;5.932;2023-06-22T12:42:07;13.18;;;7.20;;
74528;SDS011;63009;52.584;5.932;2023-06-22T12:44:34;11.50;;;7.63;;
74528;SDS011;63009;52.584;5.932;2023-06-22T12:47:00;13.48;;;7.10;;
74528;SDS011;63009;52.584;5.932;2023-06-22T12:49:25;12.90;;;5.97;;
74528;SDS011;63009;52.584;5.932;2023-06-22T12:51:50;11.03;;;6.17;;
74528;SDS011;63009;52.584;5.932;2023-06-22T12:54:15;11.85;;;6.68;;
74528;SDS011;63009;52.584;5.932;2023-06-22T12:56:41;10.17;;;5.77;;
74528;SDS011;63009;52.584;5.932;2023-06-22T12:59:08;10.40;;;5.40;;
74528;SDS011;63009;52.584;5.932;2023-06-22T13:01:34;10.67;;;5.37;;
74528;SDS011;63009;52.584;5.932;2023-06-22T13:03:59;10.47;;;6.20;;
74528;SDS011;63009;52.584;5.932;2023-06-22T13:06:24;10.00;;;5.63;;
74528;SDS011;63009;52.584;5.932;2023-06-22T13:08:50;10.90;;;5.50;;
74528;SDS011;63009;52.584;5.932;2023-06-22T13:11:15;11.35;;;7.32;;
74528;SDS011;63009;52.584;5.932;2023-06-22T13:13:41;13.40;;;9.25;;
74528;SDS011;63009;52.584;5.932;2023-06-22T13:16:06;13.30;;;8.10;;
74528;SDS011;63009;52.584;5.932;2023-06-22T13:18:32;13.63;;;9.57;;
74528;SDS011;63009;52.584;5.932;2023-06-22T13:20:59;11.43;;;8.02;;
74528;SDS011;63009;52.584;5.932;2023-06-22T13:23:25;11.65;;;7.57;;
74528;SDS011;63009;52.584;5.932;2023-06-22T13:25:50;12.48;;;7.40;;
74528;SDS011;63009;52.584;5.932;2023-06-22T13:28:15;13.18;;;7.38;;
74528;SDS011;63009;52.584;5.932;2023-06-22T13:30:41;13.90;;;6.95;;
74528;SDS011;63009;52.584;5.932;2023-06-22T13:33:07;12.88;;;8.27;;
74528;SDS011;63009;52.584;5.932;2023-06-22T13:35:32;16.20;;;8.10;;
74528;SDS011;63009;52.584;5.932;2023-06-22T13:37:57;14.40;;;9.40;;
74528;SDS011;63009;52.584;5.932;2023-06-22T13:40:23;15.70;;;10.00;;
74528;SDS011;63009;52.584;5.932;2023-06-22T13:42:48;15.97;;;10.57;;
74528;SDS011;63009;52.584;5.932;2023-06-22T13:45:13;14.75;;;9.25;;
74528;SDS011;63009;52.584;5.932;2023-06-22T13:47:41;14.35;;;8.80;;
74528;SDS011;63009;52.584;5.932;2023-06-22T13:50:06;14.77;;;8.60;;
74528;SDS011;63009;52.584;5.932;2023-06-22T13:52:32;14.73;;;10.00;;
74528;SDS011;63009;52.584;5.932;2023-06-22T13:54:57;14.40;;;10.10;;
74528;SDS011;63009;52.584;5.932;2023-06-22T13:57:23;16.35;;;9.98;;
74528;SDS011;63009;52.584;5.932;2023-06-22T13:59:48;13.40;;;9.47;;
74528;SDS011;63009;52.584;5.932;2023-06-22T14:02:13;16.83;;;10.60;;
74528;SDS011;63009;52.584;5.932;2023-06-22T14:04:39;15.50;;;10.57;;
74528;SDS011;63009;52.584;5.932;2023-06-22T14:07:04;15.80;;;9.75;;
74528;SDS011;63009;52.584;5.932;2023-06-22T14:09:29;14.88;;;10.43;;
74528;SDS011;63009;52.584;5.932;2023-06-22T14:11:55;15.10;;;9.90;;
74528;SDS011;63009;52.584;5.932;2023-06-22T14:14:21;16.85;;;10.18;;
74528;SDS011;63009;52.584;5.932;2023-06-22T14:16:46;14.52;;;9.63;;
74528;SDS011;63009;52.584;5.932;2023-06-22T14:19:12;16.20;;;11.00;;
74528;SDS011;63009;52.584;5.932;2023-06-22T14:21:38;16.80;;;11.32;;
74528;SDS011;63009;52.584;5.932;2023-06-22T14:24:03;16.17;;;11.02;;
74528;SDS011;63009;52.584;5.932;2023-06-22T14:26:29;18.02;;;11.57;;
74528;SDS011;63009;52.584;5.932;2023-06-22T14:28:54;17.40;;;11.40;;
74528;SDS011;63009;52.584;5.932;2023-06-22T14:31:21;23.42;;;12.88;;